
Distance (Route):
Temperature : 6.9°C
Humidity : 90.0%
Pressure : 0hPa| Receiver | Date | Latitude | Longitude | Direction | Speed | Altitude | Climb | Temperature | Humidity | Pressure | Voltage | Killtimer | Uptime | BKT | XDATA |
|---|---|---|---|---|---|---|---|---|---|---|---|---|---|---|---|
| LZ4TU-5 | 2026-08-31 13:09:01 | 43.16242 | 22.26002 | 56° | 16km/h | 3205m | -16.0m/s | 6.9°C | 90.0% | 0hPa | 0V | 00:00:00 | 00:00:00 | 00:00:00 | |
| LZ4TU-5 | 2026-08-31 13:08:55 | 43.16228 | 22.25970 | 65° | 18km/h | 3303m | -15.3m/s | 6.2°C | 89.4% | 0hPa | 0V | 00:00:00 | 00:00:00 | 00:00:00 | |
| LZ4TU-5 | 2026-08-31 13:08:51 | 43.16220 | 22.25945 | 68° | 20km/h | 3364m | -15.2m/s | 6.1°C | 91.1% | 0hPa | 0V | 00:00:00 | 00:00:00 | 00:00:00 | |
| LZ4TU-5 | 2026-08-31 13:08:46 | 43.16210 | 22.25919 | 59° | 18km/h | 3429m | -15.2m/s | 5.8°C | 90.7% | 0hPa | 0V | 00:00:00 | 00:00:00 | 00:00:00 | |
| LZ4TU-5 | 2026-08-31 13:08:41 | 43.16198 | 22.25891 | 62° | 18km/h | 3508m | -15.2m/s | 5.3°C | 89.2% | 0hPa | 0V | 00:00:00 | 00:00:00 | 00:00:00 | |
| LZ4TU-5 | 2026-08-31 13:08:37 | 43.16189 | 22.25867 | 68° | 18km/h | 3572m | -15.0m/s | 3.5°C | 65.9% | 0hPa | 0V | 00:00:00 | 00:00:00 | 00:00:00 | |
| LZ4TU-5 | 2026-08-31 13:08:32 | 43.16179 | 22.25834 | 69° | 20km/h | 3649m | -14.8m/s | 3.0°C | 71.1% | 0hPa | 0V | 00:00:00 | 00:00:00 | 00:00:00 | |
| LZ4TU-5 | 2026-08-31 13:08:27 | 43.16171 | 22.25801 | 69° | 18km/h | 3723m | -14.0m/s | 2.3°C | 73.3% | 0hPa | 0V | 00:00:00 | 00:00:00 | 00:00:00 | |
| LZ4TU-5 | 2026-08-31 13:08:22 | 43.16161 | 22.25775 | 56° | 18km/h | 3781m | -13.7m/s | 1.8°C | 77.3% | 0hPa | 0V | 00:00:00 | 00:00:00 | 00:00:00 | |
| LZ4TU-5 | 2026-08-31 13:08:17 | 43.16148 | 22.25751 | 58° | 16km/h | 3852m | -13.6m/s | 1.6°C | 81.6% | 0hPa | 0V | 00:00:00 | 00:00:00 | 00:00:00 | |
| LZ4TU-5 | 2026-08-31 13:08:12 | 43.16136 | 22.25724 | 59° | 18km/h | 3928m | -15.9m/s | 1.2°C | 80.9% | 0hPa | 0V | 00:00:00 | 00:00:00 | 00:00:00 | |
| LZ4TU-5 | 2026-08-31 13:08:07 | 43.16120 | 22.25697 | 40° | 20km/h | 4009m | -15.1m/s | 0.8°C | 86.8% | 0hPa | 0V | 00:00:00 | 00:00:00 | 00:00:00 | |
| LZ4TU-5 | 2026-08-31 13:08:03 | 43.16103 | 22.25682 | 37° | 20km/h | 4072m | -15.9m/s | 0.6°C | 93.1% | 0hPa | 0V | 00:00:00 | 00:00:00 | 00:00:00 | |
| LZ4TU-5 | 2026-08-31 13:07:59 | 43.16088 | 22.25670 | 38° | 18km/h | 4131m | -14.3m/s | 0.4°C | 93.4% | 0hPa | 0V | 00:00:00 | 00:00:00 | 00:00:00 | |
| LZ4TU-5 | 2026-08-31 13:07:54 | 43.16069 | 22.25641 | 55° | 26km/h | 4204m | -17.2m/s | 0.3°C | 92.6% | 0hPa | 0V | 00:00:00 | 00:00:00 | 00:00:00 | |
| LZ4TU-5 | 2026-08-31 13:07:49 | 43.16053 | 22.25610 | 72° | 16km/h | 4298m | -18.9m/s | -1.1°C | 85.2% | 0hPa | 0V | 00:00:00 | 00:00:00 | 00:00:00 | |
| LZ4TU-5 | 2026-08-31 13:07:45 | 43.16049 | 22.25592 | 72° | 11km/h | 4377m | -19.6m/s | -1.2°C | 92.9% | 0hPa | 0V | 00:00:00 | 00:00:00 | 00:00:00 | |
| LZ4TU-5 | 2026-08-31 13:07:40 | 43.16044 | 22.25578 | 44° | 11km/h | 4465m | -19.4m/s | -1.3°C | 93.3% | 0hPa | 0V | 00:00:00 | 00:00:00 | 00:00:00 | |
| LZ4TU-5 | 2026-08-31 13:07:35 | 43.16033 | 22.25567 | 37° | 9km/h | 4563m | -20.1m/s | -2.2°C | 91.7% | 0hPa | 0V | 00:00:00 | 00:00:00 | 00:00:00 | |
| LZ4TU-5 | 2026-08-31 13:07:30 | 43.16023 | 22.25551 | 50° | 11km/h | 4673m | -21.3m/s | -2.9°C | 0% | 0hPa | 0V | 00:00:00 | 00:00:00 | 00:00:00 | |
| LZ4TU-5 | 2026-08-31 13:03:46 | 43.16625 | 22.23796 | 143° | 31km/h | 8677m | -19.6m/s | -26.8°C | 16.5% | 0hPa | 0V | 00:00:00 | 00:00:00 | 00:00:00 | |
| LZ4TU-5 | 2026-08-31 13:03:41 | 43.16656 | 22.23762 | 145° | 33km/h | 8777m | -19.3m/s | -27.7°C | 15.2% | 0hPa | 0V | 00:00:00 | 00:00:00 | 00:00:00 | |
| LZ4TU-5 | 2026-08-31 12:53:25 | 43.19633 | 22.19378 | 350° | 16km/h | 29274m | -65.1m/s | -42.6°C | 2.1% | 0hPa | 0V | 00:00:00 | 00:00:00 | 00:00:00 | |
| LZ4TU-5 | 2026-08-31 12:53:20 | 43.19618 | 22.19384 | 349° | 9km/h | 29603m | -66.8m/s | -42.4°C | 2.2% | 0hPa | 0V | 00:00:00 | 00:00:00 | 00:00:00 | |
| OM5KV | 2026-08-31 12:48:56 | 43.19130 | 22.18803 | 103° | 22km/h | 30217m | 6.8m/s | -42.6°C | 3.0% | 0hPa | 0V | 00:00:00 | 00:00:00 | 00:00:00 | |
| OM5KV | 2026-08-31 12:48:39 | 43.19152 | 22.18798 | 204° | 22km/h | 30103m | 6.5m/s | -43.4°C | 3.2% | 0hPa | 0V | 00:00:00 | 00:00:00 | 00:00:00 | |
| OM5KV | 2026-08-31 12:48:29 | 43.19173 | 22.18789 | 291° | 5km/h | 30033m | 7.7m/s | -43.3°C | 3.2% | 0hPa | 0V | 00:00:00 | 00:00:00 | 00:00:00 | |
| LZ4TU-5 | 2026-08-31 12:48:02 | 43.19143 | 22.18803 | 338° | 27km/h | 29852m | 5.8m/s | -42.9°C | 3.2% | 0hPa | 0V | 00:00:00 | 00:00:00 | 00:00:00 | |
| LZ4TU-5 | 2026-08-31 12:47:57 | 43.19130 | 22.18813 | 323° | 9km/h | 29819m | 7.6m/s | -42.6°C | 3.1% | 0hPa | 0V | 00:00:00 | 00:00:00 | 00:00:00 | |
| LZ4TU-5 | 2026-08-31 12:46:05 | 43.18603 | 22.19236 | 0° | 0km/h | 29095m | 5.4m/s | -42.0°C | 2.4% | 0hPa | 0V | 00:00:00 | 00:00:00 | 00:00:00 | |
| LZ4TU-5 | 2026-08-31 12:46:01 | 43.18593 | 22.19258 | 287° | 38km/h | 29071m | 4.8m/s | -42.2°C | 2.4% | 0hPa | 0V | 00:00:00 | 00:00:00 | 00:00:00 | |
| LZ4TU-5 | 2026-08-31 12:44:03 | 43.18497 | 22.19885 | 282° | 24km/h | 28292m | 5.7m/s | -44.5°C | 2.4% | 0hPa | 0V | 00:00:00 | 00:00:00 | 00:00:00 | |
| LZ4TU-5 | 2026-08-31 12:43:58 | 43.18499 | 22.19895 | 169° | 20km/h | 28262m | 6.4m/s | -44.9°C | 2.4% | 0hPa | 0V | 00:00:00 | 00:00:00 | 00:00:00 | |
| LZ4TU-5 | 2026-08-31 12:41:42 | 43.18526 | 22.20114 | 186° | 24km/h | 27411m | 4.7m/s | -45.4°C | 2.5% | 0hPa | 0V | 00:00:00 | 00:00:00 | 00:00:00 | |
| LZ4TU-5 | 2026-08-31 12:41:38 | 43.18538 | 22.20118 | 71° | 5km/h | 27383m | 8.1m/s | -45.3°C | 2.5% | 0hPa | 0V | 00:00:00 | 00:00:00 | 00:00:00 | |
| LZ4TU-5 | 2026-08-31 12:39:33 | 43.18472 | 22.20161 | 178° | 9km/h | 26572m | 6.1m/s | -47.0°C | 2.5% | 0hPa | 0V | 00:00:00 | 00:00:00 | 00:00:00 | |
| LZ4TU-5 | 2026-08-31 12:39:28 | 43.18478 | 22.20143 | 120° | 15km/h | 26539m | 4.8m/s | -47.1°C | 2.5% | 0hPa | 0V | 00:00:00 | 00:00:00 | 00:00:00 | |
| LZ4TU-5 | 2026-08-31 12:37:28 | 43.18728 | 22.19572 | 115° | 27km/h | 25763m | 5.7m/s | -48.8°C | 2.3% | 0hPa | 0V | 00:00:00 | 00:00:00 | 00:00:00 | |
| LZ4TU-5 | 2026-08-31 12:37:24 | 43.18715 | 22.19557 | 21° | 35km/h | 25737m | 5.8m/s | -49.0°C | 2.3% | 0hPa | 0V | 00:00:00 | 00:00:00 | 00:00:00 | |
| LZ4TU-5 | 2026-08-31 12:35:18 | 43.18458 | 22.19267 | 40° | 20km/h | 24956m | 5.8m/s | -49.4°C | 2.1% | 0hPa | 0V | 00:00:00 | 00:00:00 | 00:00:00 | |
| LZ4TU-5 | 2026-08-31 12:35:14 | 43.18447 | 22.19253 | 268° | 4km/h | 24934m | 6.7m/s | -49.9°C | 2.2% | 0hPa | 0V | 00:00:00 | 00:00:00 | 00:00:00 | |
| LZ4TU-5 | 2026-08-31 12:33:22 | 43.18318 | 22.18813 | 59° | 22km/h | 24259m | 7.7m/s | -51.0°C | 2.0% | 0hPa | 0V | 00:00:00 | 00:00:00 | 00:00:00 | |
| LZ4TU-5 | 2026-08-31 12:33:17 | 43.18303 | 22.18781 | 80° | 13km/h | 24229m | 5.9m/s | -51.0°C | 2.0% | 0hPa | 0V | 00:00:00 | 00:00:00 | 00:00:00 | |
| LZ4TU-5 | 2026-08-31 12:31:28 | 43.17860 | 22.18556 | 46° | 20km/h | 23602m | 6.3m/s | -52.5°C | 2.3% | 0hPa | 0V | 00:00:00 | 00:00:00 | 00:00:00 | |
| LZ4TU-5 | 2026-08-31 12:31:24 | 43.17845 | 22.18543 | 5° | 15km/h | 23578m | 4.8m/s | -52.4°C | 2.3% | 0hPa | 0V | 00:00:00 | 00:00:00 | 00:00:00 | |
| LZ4TU-5 | 2026-08-31 12:29:35 | 43.17666 | 22.18597 | 349° | 5km/h | 22921m | 5.9m/s | -52.1°C | 2.3% | 0hPa | 0V | 00:00:00 | 00:00:00 | 00:00:00 | |
| LZ4TU-5 | 2026-08-31 12:29:30 | 43.17657 | 22.18601 | 304° | 2km/h | 22891m | 5.6m/s | -52.0°C | 2.2% | 0hPa | 0V | 00:00:00 | 00:00:00 | 00:00:00 | |
| LZ4TU-5 | 2026-08-31 12:27:45 | 43.17450 | 22.18357 | 68° | 24km/h | 22269m | 4.6m/s | -52.8°C | 2.2% | 0hPa | 0V | 00:00:00 | 00:00:00 | 00:00:00 | |
| LZ4TU-5 | 2026-08-31 12:27:41 | 43.17434 | 22.18349 | 309° | 22km/h | 22247m | 6.0m/s | -52.8°C | 2.3% | 0hPa | 0V | 00:00:00 | 00:00:00 | 00:00:00 | |
| LZ4TU-5 | 2026-08-31 12:25:57 | 43.17157 | 22.18386 | 357° | 42km/h | 21662m | 4.8m/s | -53.0°C | 1.9% | 0hPa | 0V | 00:00:00 | 00:00:00 | 00:00:00 | |
| LZ4TU-5 | 2026-08-31 12:25:52 | 43.17118 | 22.18373 | 42° | 15km/h | 21635m | 5.4m/s | -53.3°C | 2.0% | 0hPa | 0V | 00:00:00 | 00:00:00 | 00:00:00 | |
| LZ4TU-5 | 2026-08-31 12:24:06 | 43.16703 | 22.18725 | 275° | 11km/h | 21049m | 5.4m/s | -54.7°C | 2.1% | 0hPa | 0V | 00:00:00 | 00:00:00 | 00:00:00 | |
| LZ4TU-5 | 2026-08-31 12:24:01 | 43.16688 | 22.18738 | 347° | 24km/h | 21022m | 5.0m/s | -55.0°C | 2.2% | 0hPa | 0V | 00:00:00 | 00:00:00 | 00:00:00 | |
| LZ4TU-5 | 2026-08-31 12:22:16 | 43.16439 | 22.19081 | 243° | 11km/h | 20422m | 4.8m/s | -55.0°C | 2.4% | 0hPa | 0V | 00:00:00 | 00:00:00 | 00:00:00 | |
| LZ4TU-5 | 2026-08-31 12:22:11 | 43.16441 | 22.19088 | 207° | 5km/h | 20393m | 5.4m/s | -55.0°C | 2.3% | 0hPa | 0V | 00:00:00 | 00:00:00 | 00:00:00 | |
| LZ4TU-5 | 2026-08-31 12:20:28 | 43.16251 | 22.19066 | 267° | 11km/h | 19825m | 4.5m/s | -55.7°C | 2.2% | 0hPa | 0V | 00:00:00 | 00:00:00 | 00:00:00 | |
| LZ4TU-5 | 2026-08-31 12:20:24 | 43.16245 | 22.19078 | 315° | 11km/h | 19802m | 5.2m/s | -55.7°C | 2.2% | 0hPa | 0V | 00:00:00 | 00:00:00 | 00:00:00 | |
| LZ4TU-5 | 2026-08-31 12:20:19 | 43.16238 | 22.19080 | 191° | 9km/h | 19774m | 6.4m/s | -55.7°C | 2.2% | 0hPa | 0V | 00:00:00 | 00:00:00 | 00:00:00 | |
| LZ4TU-5 | 2026-08-31 12:20:15 | 43.16247 | 22.19088 | 342° | 7km/h | 19747m | 6.3m/s | -55.8°C | 2.2% | 0hPa | 0V | 00:00:00 | 00:00:00 | 00:00:00 | |
| LZ4TU-5 | 2026-08-31 12:18:29 | 43.16183 | 22.18820 | 101° | 20km/h | 19174m | 4.4m/s | -56.8°C | 2.4% | 0hPa | 0V | 00:00:00 | 00:00:00 | 00:00:00 | |
| LZ4TU-5 | 2026-08-31 12:18:24 | 43.16176 | 22.18805 | 10° | 13km/h | 19148m | 5.6m/s | -56.9°C | 2.4% | 0hPa | 0V | 00:00:00 | 00:00:00 | 00:00:00 | |
| LZ4TU-5 | 2026-08-31 12:16:34 | 43.15975 | 22.18806 | 354° | 18km/h | 18572m | 4.3m/s | -57.9°C | 2.7% | 0hPa | 0V | 00:00:00 | 00:00:00 | 00:00:00 | |
| LZ4TU-5 | 2026-08-31 12:16:30 | 43.15956 | 22.18795 | 29° | 16km/h | 18549m | 5.8m/s | -57.9°C | 2.7% | 0hPa | 0V | 00:00:00 | 00:00:00 | 00:00:00 | |
| LZ4TU-5 | 2026-08-31 12:14:46 | 43.15800 | 22.18520 | 98° | 18km/h | 18000m | 5.2m/s | -58.3°C | 3.3% | 0hPa | 0V | 00:00:00 | 00:00:00 | 00:00:00 | |
| LZ4TU-5 | 2026-08-31 12:14:42 | 43.15799 | 22.18504 | 39° | 7km/h | 17980m | 4.3m/s | -58.3°C | 3.3% | 0hPa | 0V | 00:00:00 | 00:00:00 | 00:00:00 | |
| LZ4TU-5 | 2026-08-31 12:13:02 | 43.15924 | 22.18006 | 86° | 29km/h | 17462m | 5.7m/s | -59.2°C | 3.3% | 0hPa | 0V | 00:00:00 | 00:00:00 | 00:00:00 | |
| LZ4TU-5 | 2026-08-31 12:12:57 | 43.15921 | 22.17975 | 95° | 7km/h | 17437m | 5.3m/s | -59.2°C | 3.4% | 0hPa | 0V | 00:00:00 | 00:00:00 | 00:00:00 | |
| LZ4TU-5 | 2026-08-31 12:11:19 | 43.15714 | 22.17256 | 121° | 22km/h | 16940m | 4.9m/s | -60.6°C | 4.0% | 0hPa | 0V | 00:00:00 | 00:00:00 | 00:00:00 | |
| LZ4TU-5 | 2026-08-31 12:11:14 | 43.15718 | 22.17217 | 75° | 31km/h | 16913m | 4.2m/s | -60.6°C | 0% | 0hPa | 0V | 00:00:00 | 00:00:00 | 00:00:00 | |
| LZ4TU-5 | 2026-08-31 12:09:32 | 43.15948 | 22.16724 | 114° | 29km/h | 16392m | 4.9m/s | -61.3°C | 5.4% | 0hPa | 0V | 00:00:00 | 00:00:00 | 00:00:00 | |
| LZ4TU-5 | 2026-08-31 12:09:28 | 43.15962 | 22.16692 | 120° | 29km/h | 16371m | 4.9m/s | -61.2°C | 5.4% | 0hPa | 0V | 00:00:00 | 00:00:00 | 00:00:00 | |
| LZ4TU-5 | 2026-08-31 12:07:48 | 43.16235 | 22.15408 | 75° | 51km/h | 15876m | 5.3m/s | -61.0°C | 5.5% | 0hPa | 0V | 00:00:00 | 00:00:00 | 00:00:00 | |
| LZ4TU-5 | 2026-08-31 12:07:43 | 43.16222 | 22.15337 | 83° | 49km/h | 15851m | 5.8m/s | -61.0°C | 5.7% | 0hPa | 0V | 00:00:00 | 00:00:00 | 00:00:00 | |
| LZ4TU-5 | 2026-08-31 12:06:04 | 43.15984 | 22.14250 | 83° | 33km/h | 15349m | 4.5m/s | -59.8°C | 8.0% | 0hPa | 0V | 00:00:00 | 00:00:00 | 00:00:00 | |
| LZ4TU-5 | 2026-08-31 12:05:59 | 43.15982 | 22.14202 | 90° | 20km/h | 15325m | 4.2m/s | -60.0°C | 7.9% | 0hPa | 0V | 00:00:00 | 00:00:00 | 00:00:00 | |
| LZ4TU-5 | 2026-08-31 12:04:22 | 43.16123 | 22.13360 | 108° | 29km/h | 14850m | 5.2m/s | -60.2°C | 9.1% | 0hPa | 0V | 00:00:00 | 00:00:00 | 00:00:00 | |
| LZ4TU-5 | 2026-08-31 12:04:17 | 43.16142 | 22.13301 | 116° | 40km/h | 14827m | 4.9m/s | -60.0°C | 9.2% | 0hPa | 0V | 00:00:00 | 00:00:00 | 00:00:00 | |
| LZ4TU-5 | 2026-08-31 12:02:40 | 43.16505 | 22.12266 | 114° | 27km/h | 14367m | 4.9m/s | -59.5°C | 13.4% | 0hPa | 0V | 00:00:00 | 00:00:00 | 00:00:00 | |
| LZ4TU-5 | 2026-08-31 12:02:35 | 43.16532 | 22.12210 | 120° | 49km/h | 14344m | 4.5m/s | -59.3°C | 13.8% | 0hPa | 0V | 00:00:00 | 00:00:00 | 00:00:00 | |
| LZ4TU-5 | 2026-08-31 12:00:58 | 43.17380 | 22.10784 | 126° | 51km/h | 13886m | 5.4m/s | -60.7°C | 18.1% | 0hPa | 0V | 00:00:00 | 00:00:00 | 00:00:00 | |
| LZ4TU-5 | 2026-08-31 12:00:53 | 43.17425 | 22.10710 | 134° | 62km/h | 13862m | 4.8m/s | -60.5°C | 18.3% | 0hPa | 0V | 00:00:00 | 00:00:00 | 00:00:00 | |
| LZ4TU-5 | 2026-08-31 11:59:10 | 43.18611 | 22.09376 | 141° | 55km/h | 13372m | 3.9m/s | -59.6°C | 19.5% | 0hPa | 0V | 00:00:00 | 00:00:00 | 00:00:00 | |
| LZ4TU-5 | 2026-08-31 11:59:06 | 43.18687 | 22.09302 | 139° | 80km/h | 13347m | 4.3m/s | -59.3°C | 19.5% | 0hPa | 0V | 00:00:00 | 00:00:00 | 00:00:00 | |
| LZ4TU-5 | 2026-08-31 11:57:26 | 43.20139 | 22.07745 | 145° | 78km/h | 12832m | 5.5m/s | -57.8°C | 25.4% | 0hPa | 0V | 00:00:00 | 00:00:00 | 00:00:00 | |
| LZ4TU-5 | 2026-08-31 11:57:22 | 43.20205 | 22.07676 | 141° | 84km/h | 12813m | 5.6m/s | -57.7°C | 25.5% | 0hPa | 0V | 00:00:00 | 00:00:00 | 00:00:00 | |
| LZ4TU-5 | 2026-08-31 11:55:30 | 43.21935 | 22.06097 | 149° | 77km/h | 12297m | 4.5m/s | -56.1°C | 33.7% | 0hPa | 0V | 00:00:00 | 00:00:00 | 00:00:00 | |
| LZ4TU-5 | 2026-08-31 11:55:26 | 43.22001 | 22.06039 | 150° | 80km/h | 12278m | 4.2m/s | -56.1°C | 33.4% | 0hPa | 0V | 00:00:00 | 00:00:00 | 00:00:00 | |
| LZ4TU-5 | 2026-08-31 11:53:47 | 43.23576 | 22.04638 | 151° | 82km/h | 11827m | 4.5m/s | -52.6°C | 36.8% | 0hPa | 0V | 00:00:00 | 00:00:00 | 00:00:00 | |
| LZ4TU-5 | 2026-08-31 11:53:43 | 43.23639 | 22.04577 | 147° | 69km/h | 11810m | 4.8m/s | -52.5°C | 37.2% | 0hPa | 0V | 00:00:00 | 00:00:00 | 00:00:00 | |
| LZ4TU-5 | 2026-08-31 11:52:04 | 43.25161 | 22.03240 | 146° | 71km/h | 11345m | 6.1m/s | -49.3°C | 37.5% | 0hPa | 0V | 00:00:00 | 00:00:00 | 00:00:00 | |
| LZ4TU-5 | 2026-08-31 11:51:59 | 43.25230 | 22.03190 | 150° | 69km/h | 11315m | 5.9m/s | -49.0°C | 0% | 0hPa | 0V | 00:00:00 | 00:00:00 | 00:00:00 | |
| LZ4TU-5 | 2026-08-31 11:50:17 | 43.26703 | 22.01899 | 149° | 64km/h | 10843m | 4.3m/s | -44.8°C | 23.1% | 0hPa | 0V | 00:00:00 | 00:00:00 | 00:00:00 | |
| LZ4TU-5 | 2026-08-31 11:50:13 | 43.26756 | 22.01851 | 146° | 62km/h | 10824m | 5.4m/s | -44.7°C | 22.9% | 0hPa | 0V | 00:00:00 | 00:00:00 | 00:00:00 | |
| LZ4TU-5 | 2026-08-31 11:48:37 | 43.28176 | 22.00703 | 144° | 68km/h | 10305m | 4.5m/s | -40.5°C | 20.8% | 0hPa | 0V | 00:00:00 | 00:00:00 | 00:00:00 | |
| LZ4TU-5 | 2026-08-31 11:48:32 | 43.28239 | 22.00650 | 163° | 51km/h | 10279m | 4.6m/s | -40.3°C | 20.7% | 0hPa | 0V | 00:00:00 | 00:00:00 | 00:00:00 | |
| LZ4TU-5 | 2026-08-31 11:46:53 | 43.29351 | 21.99540 | 141° | 46km/h | 9785m | 5.8m/s | -36.4°C | 22.9% | 0hPa | 0V | 00:00:00 | 00:00:00 | 00:00:00 | |
| LZ4TU-5 | 2026-08-31 11:46:48 | 43.29401 | 21.99488 | 160° | 47km/h | 9757m | 5.3m/s | -36.2°C | 22.8% | 0hPa | 0V | 00:00:00 | 00:00:00 | 00:00:00 | |
| LZ4TU-5 | 2026-08-31 11:45:15 | 43.30152 | 21.98748 | 147° | 37km/h | 9318m | 5.0m/s | -32.4°C | 13.6% | 0hPa | 0V | 00:00:00 | 00:00:00 | 00:00:00 | |
| LZ4TU-5 | 2026-08-31 11:45:10 | 43.30184 | 21.98699 | 130° | 38km/h | 9297m | 3.8m/s | -32.1°C | 13.6% | 0hPa | 0V | 00:00:00 | 00:00:00 | 00:00:00 | |
| LZ4TU-5 | 2026-08-31 11:43:20 | 43.30919 | 21.97693 | 133° | 37km/h | 8751m | 5.3m/s | -27.8°C | 13.8% | 0hPa | 0V | 00:00:00 | 00:00:00 | 00:00:00 | |
| LZ4TU-5 | 2026-08-31 11:43:16 | 43.30940 | 21.97664 | 150° | 31km/h | 8730m | 4.3m/s | -27.7°C | 13.4% | 0hPa | 0V | 00:00:00 | 00:00:00 | 00:00:00 | |
| LZ4TU-5 | 2026-08-31 11:41:42 | 43.31510 | 21.96783 | 137° | 33km/h | 8292m | 5.0m/s | -25.2°C | 14.6% | 0hPa | 0V | 00:00:00 | 00:00:00 | 00:00:00 | |
| LZ4TU-5 | 2026-08-31 11:41:37 | 43.31534 | 21.96736 | 119° | 49km/h | 8268m | 5.4m/s | -25.1°C | 14.5% | 0hPa | 0V | 00:00:00 | 00:00:00 | 00:00:00 | |
| LZ4TU-5 | 2026-08-31 11:40:00 | 43.31924 | 21.95632 | 136° | 42km/h | 7807m | 7.6m/s | -21.7°C | 18.2% | 0hPa | 0V | 00:00:00 | 00:00:00 | 00:00:00 | |
| LZ4TU-5 | 2026-08-31 11:39:56 | 43.31943 | 21.95569 | 95° | 47km/h | 7784m | 5.4m/s | -21.5°C | 18.0% | 0hPa | 0V | 00:00:00 | 00:00:00 | 00:00:00 | |
| LZ4TU-5 | 2026-08-31 11:37:35 | 43.32408 | 21.94123 | 156° | 16km/h | 7084m | 4.5m/s | -15.7°C | 16.1% | 0hPa | 0V | 00:00:00 | 00:00:00 | 00:00:00 | |
| LZ4TU-5 | 2026-08-31 11:37:31 | 43.32431 | 21.94077 | 137° | 44km/h | 7062m | 4.4m/s | -15.6°C | 18.0% | 0hPa | 0V | 00:00:00 | 00:00:00 | 00:00:00 | |
| LZ4TU-5 | 2026-08-31 11:36:08 | 43.32979 | 21.93549 | 133° | 49km/h | 6658m | 5.3m/s | -12.2°C | 20.4% | 0hPa | 0V | 00:00:00 | 00:00:00 | 00:00:00 | |
| LZ4TU-5 | 2026-08-31 11:36:03 | 43.33024 | 21.93528 | 194° | 13km/h | 6629m | 5.6m/s | -11.9°C | 18.4% | 0hPa | 0V | 00:00:00 | 00:00:00 | 00:00:00 | |
| LZ4TU-5 | 2026-08-31 11:34:45 | 43.33344 | 21.93086 | 127° | 31km/h | 6227m | 6.3m/s | -9.4°C | 9.4% | 0hPa | 0V | 00:00:00 | 00:00:00 | 00:00:00 | |
| LZ4TU-5 | 2026-08-31 11:34:40 | 43.33367 | 21.93035 | 110° | 15km/h | 6193m | 7.1m/s | -9.1°C | 8.3% | 0hPa | 0V | 00:00:00 | 00:00:00 | 00:00:00 | |
| LZ4TU-5 | 2026-08-31 11:33:28 | 43.33544 | 21.92517 | 47° | 15km/h | 5820m | 3.4m/s | -6.4°C | 10.4% | 0hPa | 0V | 00:00:00 | 00:00:00 | 00:00:00 | |
| LZ4TU-5 | 2026-08-31 11:33:23 | 43.33540 | 21.92513 | 173° | 7km/h | 5795m | 6.0m/s | -6.2°C | 9.9% | 0hPa | 0V | 00:00:00 | 00:00:00 | 00:00:00 | |
| LZ4TU-5 | 2026-08-31 11:32:09 | 43.33695 | 21.92232 | 173° | 20km/h | 5446m | 4.1m/s | -3.7°C | 8.9% | 0hPa | 0V | 00:00:00 | 00:00:00 | 00:00:00 | |
| LZ4TU-5 | 2026-08-31 11:32:04 | 43.33700 | 21.92206 | 57° | 7km/h | 5419m | 5.3m/s | -3.7°C | 8.9% | 0hPa | 0V | 00:00:00 | 00:00:00 | 00:00:00 | |
| LZ4TU-5 | 2026-08-31 11:30:52 | 43.33751 | 21.91945 | 186° | 13km/h | 5074m | 4.9m/s | -3.7°C | 21.5% | 0hPa | 0V | 00:00:00 | 00:00:00 | 00:00:00 | |
| LZ4TU-5 | 2026-08-31 11:30:48 | 43.33773 | 21.91918 | 117° | 33km/h | 5054m | 5.1m/s | -3.6°C | 21.2% | 0hPa | 0V | 00:00:00 | 00:00:00 | 00:00:00 | |
| LZ4TU-5 | 2026-08-31 11:29:35 | 43.33800 | 21.91371 | 59° | 20km/h | 4688m | 4.1m/s | -1.6°C | 27.0% | 0hPa | 0V | 00:00:00 | 00:00:00 | 00:00:00 | |
| LZ4TU-5 | 2026-08-31 11:29:30 | 43.33799 | 21.91365 | 278° | 7km/h | 4667m | 4.3m/s | -1.5°C | 29.5% | 0hPa | 0V | 00:00:00 | 00:00:00 | 00:00:00 | |
| LZ4TU-5 | 2026-08-31 11:28:17 | 43.33750 | 21.91132 | 71° | 31km/h | 4313m | 6.3m/s | -0.5°C | 51.4% | 0hPa | 0V | 00:00:00 | 00:00:00 | 00:00:00 | |
| LZ4TU-5 | 2026-08-31 11:28:12 | 43.33734 | 21.91102 | 304° | 5km/h | 4281m | 5.3m/s | -0.4°C | 56.8% | 0hPa | 0V | 00:00:00 | 00:00:00 | 00:00:00 |